.
WxDataArchive / Data Records for 2010-06-09
2010-06-08 June 2010 2010-06-10

Data Records for Wednesday, 09 June 2010

Time	Temp	Chill	HIndex	Humid	Dewpt	 Wind 	HiWind	WindDir	Rain 	Barom 
-----	----	-----	------	-----	-----	------	------	-------	-----	----- 
00:00	59.5	59.5	59.5	95	58.1	1	4	112	0.00	29.945 
00:05	59.5	59.5	59.5	95	58.1	2	5	112	0.01	29.945 
00:10	59.5	59.5	59.5	95	58.1	1	5	112	0.00	29.945 
00:15	59.5	59.5	59.5	95	58.1	2	4	112	0.01	29.931 
00:20	59.5	59.5	59.5	95	58.1	2	6	90	0.00	29.931 
00:25	59.6	59.6	59.6	95	58.2	1	4	90	0.00	29.931 
00:30	59.6	59.6	59.6	95	58.2	1	4	112	0.00	29.919 
00:35	59.6	59.6	59.6	95	58.2	2	4	90	0.00	29.919 
00:40	59.6	59.6	59.6	95	58.2	1	4	90	0.00	29.919 
00:45	59.6	59.6	59.6	95	58.2	1	4	180	0.00	29.904 
00:50	59.8	59.8	59.8	95	58.4	1	6	90	0.00	29.904 
00:55	59.8	59.8	59.8	95	58.4	2	4	90	0.00	29.904 
01:00	59.9	59.9	59.9	95	58.5	1	3	90	0.00	29.887 
01:05	59.9	59.9	59.9	95	58.5	1	3	135	0.00	29.887 
01:10	59.9	59.9	59.9	95	58.5	1	3	90	0.00	29.887 
01:15	60.1	60.1	60.1	95	58.7	1	3	90	0.00	29.882 
01:20	60.1	60.1	60.1	95	58.7	1	3	135	0.00	29.882 
01:25	60.2	60.2	60.2	95	58.8	1	2	90	0.00	29.882 
01:30	60.2	60.2	60.2	96	59.1	1	3	112	0.00	29.875 
01:35	60.2	60.2	60.2	96	59.1	1	3	112	0.00	29.875 
01:40	60.4	60.4	60.4	95	59.0	1	3	135	0.00	29.875 
01:45	60.4	60.4	60.4	95	59.0	1	3	112	0.00	29.869 
01:50	60.5	60.5	60.5	95	59.1	0	3	68	0.00	29.869 
01:55	60.5	60.5	60.5	95	59.1	1	4	90	0.00	29.869 
02:00	60.7	60.7	60.7	95	59.3	1	5	90	0.00	29.868 
02:05	60.7	60.7	60.7	95	59.3	1	4	135	0.00	29.868 
02:10	60.9	60.9	60.9	95	59.5	1	4	90	0.01	29.868 
02:15	60.9	60.9	60.9	95	59.5	1	3	112	0.00	29.861 
02:20	61.0	61.0	61.0	95	59.6	1	3	112	0.00	29.861 
02:25	61.0	61.0	61.0	95	59.6	1	4	112	0.00	29.861 
02:30	61.2	61.2	61.2	95	59.8	0	3	112	0.00	29.849 
02:35	61.2	61.2	61.2	94	59.5	0	2	112	0.00	29.849 
02:40	61.3	61.3	61.3	94	59.6	0	2	112	0.00	29.849 
02:45	61.3	61.3	61.3	94	59.6	0	2	112	0.00	29.844 
02:50	61.3	61.3	61.3	94	59.6	0	2	112	0.00	29.844 
02:55	61.5	61.5	61.5	94	59.8	0	2	112	0.00	29.844 
03:00	61.5	61.5	61.5	94	59.8	0	2	112	0.00	29.835 
03:05	61.6	61.6	61.6	94	59.9	0	2	112	0.00	29.835 
03:10	61.6	61.6	61.6	93	59.6	0	3	112	0.00	29.835 
03:15	61.8	61.8	61.8	93	59.8	0	1	112	0.00	29.836 
03:20	61.8	61.8	61.8	93	59.8	0	3	112	0.00	29.836 
03:25	62.0	62.0	62.0	93	59.9	0	1	112	0.00	29.836 
03:30	62.1	62.1	62.1	93	60.0	0	1	112	0.00	29.837 
03:35	62.1	62.1	62.1	93	60.0	0	2	112	0.00	29.837 
03:40	62.3	62.3	62.3	93	60.2	0	1	112	0.00	29.837 
03:45	62.3	62.3	62.3	93	60.2	0	1	112	0.01	29.832 
03:50	62.4	62.4	62.4	93	60.3	0	3	135	0.00	29.832 
03:55	62.4	62.4	62.4	94	60.6	0	1	270	0.01	29.832 
04:00	62.6	62.6	62.6	94	60.8	0	1	270	0.01	29.819 
04:05	62.6	62.6	62.6	94	60.8	0	2	270	0.00	29.819 
04:10	62.6	62.6	62.6	94	60.8	0	1	270	0.00	29.819 
04:15	62.6	62.6	62.6	94	60.8	0	1	270	0.01	29.809 
04:20	62.7	62.7	62.7	94	60.9	0	1	270	0.01	29.809 
04:25	62.7	62.7	62.7	95	61.2	0	2	270	0.02	29.809 
04:30	62.9	62.9	62.9	95	61.4	0	1	270	0.01	29.805 
04:35	62.9	62.9	62.9	95	61.4	0	3	292	0.00	29.805 
04:40	63.1	63.1	63.1	95	61.6	0	2	292	0.01	29.805 
04:45	63.2	63.2	63.2	95	61.7	0	2	292	0.02	29.796 
04:50	63.2	63.2	63.2	95	61.7	0	1	292	0.02	29.796 
04:55	63.4	63.4	63.4	95	61.9	1	3	0	0.01	29.796 
05:00	63.7	63.7	63.7	96	62.5	0	2	248	0.01	29.789 
05:05	63.9	63.9	63.9	96	62.7	0	2	248	0.01	29.789 
05:10	63.9	63.9	63.9	96	62.7	0	1	248	0.00	29.789 
05:15	64.2	64.2	64.2	96	63.0	0	2	248	0.00	29.790 
05:20	64.2	64.2	64.2	96	63.0	0	3	248	0.01	29.790 
05:25	64.3	64.3	64.3	96	63.1	1	3	248	0.00	29.790 
05:30	64.3	64.3	64.3	96	63.1	0	3	248	0.00	29.784 
05:35	64.5	64.5	64.5	96	63.3	0	2	248	0.01	29.784 
05:40	64.5	64.5	64.5	96	63.3	0	2	248	0.00	29.784 
05:45	64.5	64.5	64.5	96	63.3	0	2	248	0.02	29.781 
05:50	64.5	64.5	64.5	96	63.3	0	1	248	0.01	29.781 
05:55	64.5	64.5	64.5	96	63.3	0	2	248	0.00	29.781 
06:00	64.7	64.7	64.7	96	63.5	0	3	248	0.01	29.775 
06:05	64.7	64.7	64.7	96	63.5	0	1	248	0.01	29.775 
06:10	64.7	64.7	64.7	96	63.5	0	0	---	0.00	29.775 
06:15	64.7	64.7	64.7	96	63.5	0	1	248	0.00	29.772 
06:20	64.7	64.7	64.7	96	63.5	0	0	---	0.00	29.772 
06:25	64.8	64.8	64.8	96	63.6	0	1	248	0.00	29.772 
06:30	64.8	64.8	64.8	96	63.6	0	0	---	0.00	29.770 
06:35	64.8	64.8	64.8	96	63.6	0	0	---	0.00	29.770 
06:40	65.0	65.0	65.0	96	63.8	0	0	---	0.00	29.770 
06:45	65.0	65.0	65.0	96	63.8	0	1	248	0.00	29.783 
06:50	65.0	65.0	65.0	96	63.8	0	0	---	0.00	29.783 
06:55	65.2	65.2	65.2	96	64.0	0	0	---	0.00	29.783 
07:00	65.2	65.2	65.2	96	64.0	0	1	248	0.00	29.789 
07:05	65.2	65.2	65.2	96	64.0	0	0	---	0.00	29.789 
07:10	65.3	65.3	65.3	96	64.1	0	0	---	0.00	29.789 
07:15	65.3	65.3	65.3	96	64.1	0	0	---	0.00	29.791 
07:20	65.5	65.5	65.5	96	64.3	0	0	---	0.00	29.791 
07:25	65.5	65.5	65.5	96	64.3	0	1	248	0.00	29.791 
07:30	65.6	65.6	65.6	96	64.4	0	1	248	0.00	29.790 
07:35	65.8	65.8	65.8	96	64.6	0	0	---	0.00	29.790 
07:40	66.0	66.0	66.0	96	64.8	0	1	248	0.00	29.790 
07:45	66.1	66.1	66.1	96	64.9	0	1	248	0.00	29.790 
07:50	66.3	66.3	66.3	96	65.1	0	1	248	0.00	29.790 
07:55	66.4	66.4	66.4	97	65.5	0	1	248	0.00	29.790 
08:00	66.8	66.8	66.8	97	65.9	0	1	248	0.00	29.785 
08:05	66.9	66.9	66.9	97	66.0	0	1	248	0.00	29.785 
08:10	67.1	67.1	67.1	97	66.2	0	2	248	0.00	29.785 
08:15	67.4	67.4	67.4	97	66.5	0	2	248	0.00	29.788 
08:20	67.6	67.6	67.6	97	66.7	0	2	248	0.00	29.788 
08:25	67.8	67.8	67.8	97	66.9	0	1	248	0.00	29.788 
08:30	67.9	67.9	67.9	97	67.0	0	1	202	0.00	29.788 
08:35	68.1	68.1	68.1	97	67.2	0	2	202	0.00	29.788 
08:40	68.3	68.3	68.3	97	67.4	0	1	202	0.00	29.788 
08:45	68.3	68.3	68.3	97	67.4	0	2	202	0.00	29.793 
08:50	68.4	68.4	68.4	97	67.5	0	3	202	0.00	29.793 
08:55	68.4	68.4	68.4	97	67.5	0	2	270	0.00	29.793 
09:00	68.6	68.6	68.6	97	67.7	0	1	270	0.00	29.798 
09:05	68.6	68.6	68.6	97	67.7	0	1	270	0.00	29.798 
09:10	68.8	68.8	68.8	97	67.9	0	2	270	0.00	29.798 
09:15	68.9	68.9	68.9	97	68.0	0	1	270	0.00	29.799 
09:20	69.1	69.1	69.1	97	68.2	0	2	270	0.00	29.799 
09:25	69.3	69.3	69.3	97	68.4	0	1	270	0.00	29.799 
09:30	69.3	69.3	69.3	97	68.4	0	1	270	0.00	29.799 
09:35	69.4	69.4	69.4	97	68.5	0	2	270	0.00	29.799 
09:40	69.4	69.4	69.4	97	68.5	0	2	270	0.00	29.799 
09:45	69.6	69.6	69.6	97	68.7	0	2	270	0.00	29.794 
09:50	69.9	69.9	69.9	97	69.0	0	1	270	0.00	29.794 
09:55	70.3	70.3	70.3	97	69.4	0	1	270	0.00	29.794 
10:00	70.6	70.6	70.6	97	69.7	0	2	270	0.00	29.800 
10:05	70.8	70.8	70.8	97	69.9	0	2	270	0.00	29.800 
10:10	70.6	70.6	70.6	97	69.7	1	3	270	0.00	29.800 
10:15	70.4	70.4	70.4	96	69.2	1	2	292	0.00	29.799 
10:20	70.6	70.6	70.6	96	69.4	0	2	292	0.00	29.799 
10:25	70.6	70.6	70.6	96	69.4	0	2	292	0.00	29.799 
10:30	70.6	70.6	70.6	96	69.4	1	4	292	0.00	29.800 
10:35	70.8	70.8	70.8	96	69.6	0	2	292	0.00	29.800 
10:40	71.3	71.3	71.3	96	70.1	1	3	292	0.00	29.800 
10:45	71.5	71.5	71.5	96	70.3	1	3	292	0.00	29.799 
10:50	71.6	71.6	71.6	96	70.4	1	2	292	0.00	29.799 
10:55	72.0	72.0	72.0	96	70.8	0	2	292	0.00	29.799 
11:00	72.1	72.1	72.1	95	70.6	0	1	292	0.00	29.802 
11:05	72.1	72.1	72.1	95	70.6	0	2	292	0.00	29.802 
11:10	72.1	72.1	72.1	94	70.3	0	2	292	0.00	29.802 
11:15	72.3	72.3	72.3	94	70.5	0	2	292	0.00	29.801 
11:20	72.7	72.7	72.7	93	70.6	0	1	292	0.00	29.801 
11:25	72.8	72.8	72.8	92	70.3	1	2	292	0.00	29.801 
11:30	73.0	73.0	73.0	92	70.5	0	3	292	0.00	29.806 
11:35	73.2	73.2	73.2	91	70.4	0	2	292	0.00	29.806 
11:40	73.2	73.2	73.2	90	70.1	0	2	292	0.00	29.806 
11:45	73.9	73.9	73.9	90	70.8	0	1	292	0.00	29.802 
11:50	74.4	74.4	74.4	88	70.6	1	4	292	0.00	29.802 
11:55	74.6	74.6	74.6	85	69.8	2	4	292	0.00	29.802 
12:00	74.4	74.4	74.4	83	68.9	2	4	315	0.00	29.814 
12:05	74.4	74.4	74.4	81	68.2	2	4	270	0.00	29.814 
12:10	74.6	74.6	74.6	79	67.6	2	4	270	0.00	29.814 
12:15	75.3	75.3	76.1	79	68.3	2	3	315	0.00	29.815 
12:20	75.6	75.6	76.7	77	67.9	3	9	270	0.00	29.815 
12:25	75.8	75.8	77.1	75	67.3	3	6	270	0.00	29.815 
12:30	75.6	75.6	77.0	73	66.3	3	5	270	0.00	29.815 
12:35	75.6	75.6	77.0	73	66.3	2	5	315	0.00	29.815 
12:40	75.8	75.8	77.3	73	66.5	2	4	270	0.00	29.815 
12:45	76.0	76.0	77.5	73	66.7	2	5	270	0.00	29.825 
12:50	76.1	76.1	77.8	70	65.6	3	5	270	0.00	29.825 
12:55	76.0	76.0	77.7	68	64.7	3	7	315	0.00	29.825 
13:00	75.8	75.8	77.7	66	63.6	4	7	315	0.00	29.829 
13:05	76.0	76.0	77.7	68	64.7	3	5	292	0.00	29.829 
13:10	76.1	76.1	78.0	64	63.0	4	7	270	0.00	29.829 
13:15	76.3	76.3	78.1	65	63.6	2	4	315	0.00	29.831 
13:20	76.3	76.3	78.2	63	62.8	2	6	315	0.00	29.831 
13:25	76.5	76.5	78.3	63	62.9	2	4	338	0.00	29.831 
13:30	76.7	76.7	78.5	61	62.2	2	7	270	0.00	29.830 
13:35	76.8	76.8	78.6	60	61.8	2	4	270	0.00	29.830 
13:40	77.2	77.2	79.0	62	63.2	1	3	270	0.00	29.830 
13:45	77.4	77.4	79.2	63	63.8	1	3	270	0.00	29.829 
13:50	77.6	77.6	79.4	62	63.5	2	5	270	0.00	29.829 
13:55	77.2	77.2	78.7	50	57.1	2	4	315	0.00	29.829 
14:00	77.4	77.4	78.9	53	58.9	1	3	292	0.00	29.830 
14:05	77.4	77.4	79.1	58	61.4	2	6	270	0.00	29.830 
14:10	77.4	77.4	78.9	53	58.9	3	5	292	0.00	29.830 
14:15	77.6	77.6	79.1	54	59.6	2	4	315	0.00	29.829 
14:20	77.6	77.6	79.0	50	57.5	3	6	292	0.00	29.829 
14:25	77.7	77.7	79.0	50	57.6	2	4	315	0.00	29.829 
14:30	77.9	77.9	79.3	52	58.8	1	4	315	0.00	29.830 
14:35	78.3	78.3	79.7	55	60.8	1	3	315	0.00	29.830 
14:40	78.6	78.6	79.9	54	60.5	2	4	292	0.00	29.830 
14:45	78.6	78.6	79.8	53	60.0	1	4	315	0.00	29.829 
14:50	78.8	78.8	79.8	50	58.6	1	5	270	0.00	29.829 
14:55	78.6	78.6	79.7	50	58.4	2	5	270	0.00	29.829 
15:00	78.5	78.5	79.8	53	59.9	1	4	315	0.00	29.828 
15:05	78.6	78.6	79.7	50	58.4	2	5	292	0.00	29.828 
15:10	78.8	78.8	80.1	54	60.7	1	4	270	0.00	29.828 
15:15	79.0	79.0	79.9	49	58.2	2	4	292	0.00	29.824 
15:20	79.0	79.0	79.8	48	57.6	3	5	292	0.00	29.824 
15:25	78.8	78.8	79.6	47	56.8	2	5	315	0.00	29.824 
15:30	78.8	78.8	79.5	45	55.6	2	4	315	0.00	29.826 
15:35	79.2	79.2	79.9	47	57.2	1	4	315	0.00	29.826 
15:40	79.2	79.2	79.8	45	56.0	2	5	270	0.00	29.826 
15:45	79.4	79.4	80.1	47	57.4	2	5	270	0.00	29.827 
15:50	79.4	79.4	80.1	47	57.4	2	4	270	0.00	29.827 
15:55	79.6	79.6	80.1	46	57.0	2	5	270	0.00	29.827 
16:00	79.6	79.6	79.8	42	54.5	2	4	270	0.00	29.827 
16:05	79.8	79.8	80.0	43	55.3	1	5	292	0.00	29.827 
16:10	79.8	79.8	80.1	44	55.9	1	3	315	0.00	29.827 
16:15	79.9	79.9	80.4	46	57.2	2	3	292	0.00	29.824 
16:20	80.1	80.1	80.4	45	56.8	1	2	292	0.00	29.824 
16:25	80.3	80.3	80.5	44	56.4	2	3	292	0.00	29.824 
16:30	80.3	80.3	80.4	43	55.7	2	5	270	0.00	29.825 
16:35	80.1	80.1	80.2	42	54.9	2	5	292	0.00	29.825 
16:40	80.1	80.1	80.3	43	55.6	1	4	315	0.00	29.825 
16:45	80.5	80.5	80.6	43	55.9	1	3	292	0.00	29.825 
16:50	80.3	80.3	80.2	41	54.4	2	5	292	0.00	29.825 
16:55	79.9	79.9	79.9	41	54.1	2	5	270	0.00	29.825 
17:00	80.1	80.1	80.0	40	53.6	2	4	338	0.00	29.823 
17:05	80.1	80.1	80.2	42	54.9	2	6	270	0.00	29.823 
17:10	80.1	80.1	79.8	38	52.2	3	5	270	0.00	29.823 
17:15	80.1	80.1	79.9	39	52.9	2	6	315	0.00	29.823 
17:20	80.5	80.5	80.2	39	53.2	2	5	270	0.00	29.823 
17:25	80.5	80.5	80.0	37	51.8	2	5	270	0.00	29.823 
17:30	80.7	80.7	80.3	39	53.4	3	9	292	0.00	29.824 
17:35	80.7	80.7	80.5	41	54.8	2	4	315	0.00	29.824 
17:40	80.7	80.7	80.4	40	54.1	3	6	270	0.00	29.824 
17:45	80.9	80.9	80.7	41	55.0	2	3	338	0.00	29.818 
17:50	80.9	80.9	80.7	41	55.0	2	7	270	0.00	29.818 
17:55	80.7	80.7	80.4	40	54.1	2	4	270	0.00	29.818 
18:00	80.5	80.5	80.4	41	54.6	2	4	270	0.00	29.814 
18:05	80.3	80.3	80.2	41	54.4	2	4	270	0.00	29.814 
18:10	80.1	80.1	80.1	41	54.2	1	5	270	0.00	29.814 
18:15	80.3	80.3	80.4	43	55.7	1	4	315	0.00	29.814 
18:20	80.3	80.3	80.3	42	55.1	2	3	292	0.00	29.814 
18:25	80.1	80.1	80.3	43	55.6	2	4	270	0.00	29.814 
18:30	79.9	79.9	80.2	44	56.0	2	3	248	0.00	29.813 
18:35	79.9	79.9	80.1	43	55.4	2	4	292	0.00	29.813 
18:40	79.8	79.8	80.0	42	54.6	2	4	292	0.00	29.813 
18:45	79.6	79.6	80.0	44	55.7	1	5	270	0.00	29.812 
18:50	79.8	79.8	80.0	43	55.3	1	3	292	0.00	29.812 
18:55	79.8	79.8	80.0	43	55.3	1	3	292	0.00	29.812 
19:00	79.8	79.8	80.1	44	55.9	1	3	248	0.00	29.810 
19:05	79.4	79.4	79.8	44	55.6	2	5	292	0.00	29.810 
19:10	79.2	79.2	79.8	45	56.0	2	4	270	0.00	29.810 
19:15	78.8	78.8	79.5	45	55.6	2	4	270	0.00	29.812 
19:20	78.6	78.6	79.4	46	56.1	1	3	270	0.00	29.812 
19:25	78.5	78.5	79.4	47	56.6	1	3	270	0.00	29.812 
19:30	78.3	78.3	79.2	46	55.8	1	3	270	0.00	29.813 
19:35	78.5	78.5	79.4	47	56.6	1	3	292	0.00	29.813 
19:40	78.3	78.3	79.3	47	56.4	1	4	292	0.00	29.813 
19:45	78.1	78.1	79.2	48	56.8	0	2	248	0.00	29.814 
19:50	78.1	78.1	79.3	49	57.4	0	1	248	0.00	29.814 
19:55	78.3	78.3	79.4	50	58.1	0	2	248	0.00	29.814 
20:00	78.3	78.3	79.3	48	57.0	1	3	248	0.00	29.817 
20:05	78.1	78.1	79.3	49	57.4	0	2	338	0.00	29.817 
20:10	78.1	78.1	79.2	48	56.8	0	2	338	0.00	29.817 
20:15	77.9	77.9	79.1	48	56.6	1	3	315	0.00	29.821 
20:20	77.9	77.9	79.1	49	57.2	0	2	315	0.00	29.821 
20:25	77.7	77.7	78.9	48	56.4	1	3	315	0.00	29.821 
20:30	77.7	77.7	78.9	48	56.4	1	3	248	0.00	29.825 
20:35	77.6	77.6	78.9	48	56.3	1	3	248	0.00	29.825 
20:40	77.6	77.6	78.9	48	56.3	1	2	248	0.00	29.825 
20:45	77.2	77.2	78.7	48	56.0	0	2	270	0.00	29.825 
20:50	77.0	77.0	78.6	49	56.4	0	1	270	0.00	29.825 
20:55	76.7	76.7	78.4	50	56.6	0	1	270	0.00	29.825 
21:00	76.3	76.3	78.2	50	56.3	0	1	270	0.00	29.828 
21:05	76.1	76.1	78.1	51	56.6	0	1	270	0.00	29.828 
21:10	75.8	75.8	78.0	52	56.9	0	1	270	0.00	29.828 
21:15	75.4	75.4	77.8	53	57.1	0	1	270	0.00	29.825 
21:20	75.1	75.1	77.6	53	56.8	0	1	270	0.00	29.825 
21:25	75.1	75.1	77.6	54	57.3	0	0	---	0.00	29.825 
21:30	74.7	74.7	74.7	55	57.4	0	0	---	0.00	29.826 
21:35	74.6	74.6	74.6	55	57.3	0	0	---	0.00	29.826 
21:40	74.0	74.0	74.0	56	57.3	0	0	---	0.00	29.826 
21:45	73.9	73.9	73.9	56	57.2	0	1	270	0.00	29.832 
21:50	73.5	73.5	73.5	58	57.8	0	0	---	0.00	29.832 
21:55	73.3	73.3	73.3	58	57.6	0	0	---	0.00	29.832 
22:00	73.0	73.0	73.0	59	57.8	0	0	---	0.00	29.837 
22:05	72.7	72.7	72.7	59	57.5	0	1	270	0.00	29.837 
22:10	72.5	72.5	72.5	60	57.8	0	2	270	0.00	29.837 
22:15	72.7	72.7	72.7	60	58.0	0	1	270	0.00	29.842 
22:20	72.7	72.7	72.7	61	58.5	0	2	270	0.00	29.842 
22:25	72.7	72.7	72.7	62	58.9	0	1	270	0.00	29.842 
22:30	72.7	72.7	72.7	62	58.9	0	2	270	0.00	29.845 
22:35	72.7	72.7	72.7	62	58.9	0	1	270	0.00	29.845 
22:40	72.7	72.7	72.7	63	59.4	0	2	270	0.00	29.845 
22:45	72.5	72.5	72.5	63	59.2	0	1	270	0.00	29.853 
22:50	72.3	72.3	72.3	64	59.4	0	2	248	0.00	29.853 
22:55	72.3	72.3	72.3	64	59.4	0	1	248	0.00	29.853 
23:00	72.0	72.0	72.0	65	59.6	0	1	248	0.00	29.857 
23:05	71.8	71.8	71.8	65	59.4	0	1	248	0.00	29.857 
23:10	71.5	71.5	71.5	66	59.5	0	0	---	0.00	29.857 
23:15	70.9	70.9	70.9	67	59.4	0	0	---	0.00	29.858 
23:20	70.6	70.6	70.6	69	59.9	0	1	248	0.00	29.858 
23:25	70.4	70.4	70.4	69	59.7	0	1	248	0.00	29.858 
23:30	70.3	70.3	70.3	70	60.0	0	1	248	0.00	29.858 
23:35	70.1	70.1	70.1	70	59.8	0	1	248	0.00	29.858 
23:40	69.9	69.9	69.9	71	60.1	0	1	248	0.00	29.858 
23:45	69.8	69.8	69.8	72	60.4	0	1	248	0.00	29.859 
23:50	69.8	69.8	69.8	72	60.4	0	2	248	0.00	29.859 
23:55	69.6	69.6	69.6	73	60.6	0	0	---	0.00	29.859 

CoCoRaHS
IN-AL-39
A2 Web Hosting
Creative Commons License
GoDaddy
search engine by freefind advanced

loaded 2018-11-18 11:38:10 • last modified 2010-11-18 10:43:29
Privacy PolicyDisclaimer
• wx.awcolley.com is powered by PmWiki v.2002016 •
• all content (unless otherwise noted) © 2018 A W Colley